X  Fermer Données météorologiques d'aviation de Metar        LEGR Granada
Température
20°C Température
14°C Point de rosée
69% Humidité



Vitesse
28 KM/H
17 MPH
8 M/S
15 KTS



200°
SSO
Conditions actuelles

Partly Cloudy with Thunderstorms Partiellement nuageux , Thunderstorms
Pression 1016 (hPa) - 30 (inHg)
Visibilité 30 (mile) - 48 (km)
Aéroport
Code de l'aéroport LEGR

Emplacement: Granada
Distance: 56 (km)

Metar:
SPECI LEGR 211242Z 20015KT 170V230 9999 -TSRA FEW050CB SCT060TCU 20/14 Q1018 RERA

Temps: 21-09-2021 14:42 CEST